Latest Weather Observations for Ballarat

IDV60801

Issued at 1:02 pm EDT Thursday 18 December 2014 (issued every 30 minutes, with the page automatically refreshed every 10 minutes)

About weather observations | Map of weather stations | Latest weather observations for VIC | Other Formats
Station Details ID: 089002 Name: BALLARAT AERODROME Lat: -37.51 Lon: 143.79 Height: 435.2 m
Data from the previous 72 hours. | See also: Recent months at Ballarat
Date/Time
EDT
Temp
°C
App
Temp
°C
Dew
Point
Rel
Hum
%
Delta-T
°C
Wind Press
QNH
hPa
Press
MSL
hPa
Rain
since 9 am
mm
Dir
 
Spd
km/h
Gust
km/h
Spd
kts
Gust
kts
18/01:00pm 19.3 13.0 3.5 35 7.6 W 26 43 14 23 1007.2 1006.2 0.0
18/12:30pm 19.5 13.5 3.6 35 7.7 W 24 37 13 20 1007.4 1006.4 0.0
18/12:00pm 18.7 12.6 2.9 35 7.5 W 24 37 13 20 1007.5 1006.5 0.0
18/11:30am 17.0 11.2 2.2 37 6.8 W 22 37 12 20 1007.7 1006.7 0.0
18/11:00am 17.7 10.8 2.8 37 7.0 W 28 37 15 20 1007.6 1006.6 0.0
18/10:30am 17.7 11.0 3.9 40 6.6 WNW 28 39 15 21 1007.5 1006.5 0.0
18/10:00am 17.2 10.5 3.8 41 6.4 WNW 28 39 15 21 1007.5 1006.5 0.0
18/09:30am 16.5 10.2 3.9 43 6.0 W 26 39 14 21 1007.5 1006.5 0.0
18/09:00am 16.1 10.4 5.1 48 5.4 W 24 32 13 17 1007.4 1006.4 0.0
18/08:30am 15.6 10.8 5.8 52 4.8 W 20 28 11 15 1007.2 1006.2 0.0
18/08:00am 14.3 9.9 6.6 60 3.8 NNW 19 22 10 12 1006.9 1005.9 0.0
18/07:30am 11.0 10.0 8.9 87 1.1 N 4 9 2 5 1006.6 1005.5 0.0
18/07:00am 9.0 7.4 8.7 98 0.2 ENE 7 7 4 4 1006.5 1005.4 0.0
18/06:30am 6.7 4.8 6.6 99 0.0 NE 6 6 3 3 1006.4 1005.3 0.0
18/06:00am 5.1 2.3 5.0 99 0.0 NE 9 9 5 5 1005.8 1004.8 0.0
18/05:30am 4.6 2.0 4.3 98 0.1 NE 7 9 4 5 1006.0 1004.9 0.0
18/05:00am 6.4 4.2 6.1 98 0.1 WNW 7 9 4 5 1006.1 1005.0 0.0
18/04:30am 6.5 4.3 6.2 98 0.1 NW 7 9 4 5 1005.7 1004.7 0.0
18/04:00am 6.2 5.3 5.9 98 0.1 CALM 0 0 0 0 1005.5 1004.5 0.0
18/03:30am 5.9 4.5 5.6 98 0.1 ENE 2 6 1 3 1005.6 1004.6 0.0
18/03:00am 6.0 3.9 5.7 98 0.1 ENE 6 7 3 4 1005.6 1004.6 0.0
18/02:30am 7.6 6.7 6.2 91 0.7 CALM 0 0 0 0 1006.2 1005.1 0.0
18/02:00am 9.2 7.5 7.5 89 0.8 ENE 6 6 3 3 1006.5 1005.4 0.0
18/01:30am 9.7 7.0 7.5 86 1.1 ESE 11 15 6 8 1006.6 1005.5 0.0
18/01:00am 10.3 6.9 7.5 83 1.4 E 15 20 8 11 1006.6 1005.5 0.0
18/12:30am 10.6 5.8 7.3 80 1.6 ESE 22 28 12 15 1006.7 1005.7 0.0
18/12:00am 10.8 6.0 7.5 80 1.6 ESE 22 28 12 15 1007.0 1006.1 0.0
 
Date/Time
EDT
Temp
°C
App
Temp
°C
Dew
Point
Rel
Hum
%
Delta-T
°C
Wind Press
QNH
hPa
Press
MSL
hPa
Rain
since 9 am
mm
Dir
 
Spd
km/h
Gust
km/h
Spd
kts
Gust
kts
17/11:30pm 11.0 5.8 7.3 78 1.8 ESE 24 32 13 17 1007.1 1006.1 0.0
17/11:00pm 11.3 6.0 6.8 74 2.2 ESE 24 32 13 17 1007.3 1006.3 0.0
17/10:30pm 11.8 6.8 6.3 69 2.7 ESE 22 30 12 16 1007.9 1006.9 0.0
17/10:00pm 12.6 7.1 6.0 64 3.2 ESE 24 33 13 18 1007.8 1006.8 0.0
17/09:30pm 13.4 7.5 5.6 59 3.8 ESE 26 37 14 20 1007.6 1006.6 0.0
17/09:00pm 14.2 7.8 5.3 55 4.3 ESE 28 37 15 20 1007.5 1006.5 0.0
17/08:30pm 15.2 9.5 5.1 51 4.9 ESE 24 35 13 19 1007.5 1006.5 0.0
17/08:00pm 16.8 10.8 5.1 46 5.7 ESE 26 32 14 17 1007.2 1006.2 0.0
17/07:30pm 20.2 15.8 0.1 26 9.1 WSW 13 22 7 12 1007.0 1006.0 0.0
17/07:00pm 20.2 16.1 -0.4 25 9.3 SSW 11 20 6 11 1007.0 1006.0 0.0
17/06:30pm 20.6 16.0 -0.7 24 9.5 W 13 20 7 11 1006.8 1005.8 0.0
17/06:00pm 20.7 15.6 -1.8 22 9.9 W 15 22 8 12 1006.8 1005.8 0.0
17/05:30pm 20.4 16.1 -1.4 23 9.6 W 11 19 6 10 1007.0 1006.0 0.0
17/05:00pm 20.0 15.4 -1.2 24 9.4 S 13 24 7 13 1007.1 1006.1 0.0
17/04:30pm 20.4 15.7 0.8 27 9.0 WSW 15 24 8 13 1007.4 1006.4 0.0
17/04:00pm 19.9 15.4 -0.1 26 9.0 SSW 13 19 7 10 1007.6 1006.6 0.0
17/03:30pm 20.1 15.7 0.5 27 9.0 WSW 13 24 7 13 1007.8 1006.8 0.0
17/03:00pm 18.7 14.2 -0.2 28 8.4 SW 13 20 7 11 1008.1 1007.1 0.0
17/02:30pm 19.0 13.2 -0.4 27 8.6 WNW 20 37 11 20 1008.4 1007.3 0.0
17/02:00pm 18.2 12.7 0.4 30 8.0 WNW 19 30 10 16 1008.8 1007.8 0.0
17/01:30pm 18.5 13.2 1.9 33 7.7 WSW 19 35 10 19 1009.0 1008.0 0.0
17/01:00pm 17.5 13.7 1.5 34 7.3 W 11 26 6 14 1009.2 1008.2 0.0
17/12:30pm 16.2 11.5 1.1 36 6.8 SW 15 30 8 16 1009.4 1008.4 0.0
17/12:00pm 16.0 11.5 2.1 39 6.4 SSW 15 22 8 12 1009.5 1008.5 0.0
17/11:30am 15.4 10.8 1.5 39 6.2 SW 15 28 8 15 1009.5 1008.5 0.0
17/11:00am 14.7 9.3 2.3 43 5.6 WSW 20 28 11 15 1009.5 1008.5 0.0
17/10:30am 13.9 9.0 4.2 52 4.6 WSW 19 30 10 16 1009.5 1008.5 0.0
17/10:00am 14.2 9.8 4.5 52 4.6 SW 17 28 9 15 1009.4 1008.4 0.0
17/09:30am 11.9 7.3 3.9 58 3.7 SW 17 24 9 13 1009.7 1008.7 0.0
17/09:00am 11.7 7.5 5.8 67 2.8 WSW 17 26 9 14 1009.8 1008.8 0.0
17/08:30am 11.0 7.2 6.0 71 2.4 W 15 20 8 11 1009.7 1008.7 0.0
17/08:00am 9.7 5.6 6.4 80 1.6 W 17 22 9 12 1009.5 1008.5 0.0
17/07:30am 8.0 4.8 6.9 93 0.5 W 13 19 7 10 1009.1 1008.1 0.0
17/07:00am 6.4 5.5 6.1 98 0.1 CALM 0 0 0 0 1008.7 1007.7 0.0
17/06:30am 4.4 2.7 4.1 98 0.1 NNW 2 6 1 3 1008.1 1007.1 0.0
17/06:00am 4.8 2.4 4.5 98 0.1 NNE 6 7 3 4 1007.9 1006.9 0.0
17/05:30am 5.1 2.7 4.4 95 0.3 W 6 7 3 4 1007.5 1006.5 0.0
17/05:00am 6.6 3.9 5.6 93 0.5 WSW 9 11 5 6 1007.0 1006.0 0.0
17/04:30am 6.5 3.7 5.1 91 0.6 WSW 9 9 5 5 1006.8 1005.8 0.0
17/04:00am 7.0 3.8 5.2 88 0.8 W 11 13 6 7 1006.7 1005.7 0.0
17/03:30am 7.5 4.3 5.1 85 1.1 W 11 13 6 7 1006.7 1005.7 0.0
17/03:00am 8.0 5.2 5.3 83 1.2 WSW 9 13 5 7 1006.7 1005.7 0.0
17/02:30am 7.6 4.3 4.7 82 1.3 WSW 11 13 6 7 1006.7 1005.7 0.0
17/02:00am 7.9 5.4 4.8 81 1.4 W 7 11 4 6 1006.9 1005.9 0.0
17/01:30am 7.6 5.3 4.7 82 1.3 WNW 6 7 3 4 1006.9 1005.9 0.0
17/01:00am 8.2 5.2 4.2 76 1.8 WSW 9 15 5 8 1006.8 1005.8 0.0
17/12:30am 9.4 6.9 4.8 73 2.1 W 7 11 4 6 1006.6 1005.5 0.0
17/12:00am 9.6 6.9 5.8 77 1.8 SW 9 15 5 8 1006.4 1005.3 0.0
 
Date/Time
EDT
Temp
°C
App
Temp
°C
Dew
Point
Rel
Hum
%
Delta-T
°C
Wind Press
QNH
hPa
Press
MSL
hPa
Rain
since 9 am
mm
Dir
 
Spd
km/h
Gust
km/h
Spd
kts
Gust
kts
16/11:30pm 10.0 6.1 5.4 73 2.1 SW 15 24 8 13 1006.4 1005.3 0.0
16/11:00pm 10.3 6.5 4.0 65 2.9 SW 13 19 7 10 1006.2 1005.1 0.0
16/10:30pm 10.7 6.1 3.7 62 3.2 WSW 17 28 9 15 1005.8 1004.8 0.0
16/10:00pm 10.9 5.9 3.7 61 3.3 WSW 19 32 10 17 1005.4 1004.4 0.0
16/09:30pm 11.5 5.5 3.3 57 3.7 WSW 24 32 13 17 1004.8 1003.8 0.0
16/09:00pm 11.9 7.0 3.9 58 3.7 WSW 19 32 10 17 1004.5 1003.4 0.0
16/08:30pm 12.5 7.7 4.7 59 3.7 W 19 28 10 15 1003.7 1002.6 0.0
16/08:00pm 13.6 4.7 2.8 48 4.9 WSW 39 59 21 32 1002.9 1001.9 0.0
16/07:30pm 13.0 4.2 5.4 60 3.6 WSW 41 61 22 33 1002.9 1001.9 0.0
16/07:13pm 15.5 7.5 3.9 46 5.5 WSW 35 65 19 35 1002.1 1001.0 0.0
16/07:00pm 15.9 8.5 5.2 49 5.2 WSW 33 50 18 27 1001.9 1000.8 0.0
16/06:42pm 15.2 8.1 5.7 53 4.6 WSW 32 52 17 28 1001.6 1000.5 0.0
16/06:30pm 14.6 7.7 7.4 62 3.6 WSW 33 48 18 26 1001.5 1000.4 0.0
16/06:01pm 15.6 7.5 6.9 56 4.4 W 39 57 21 31 1000.4 999.3 0.0
16/06:00pm 15.5 7.1 7.3 58 4.2 W 41 57 22 31 1000.5 999.4 0.0
16/05:30pm 17.4 7.9 6.9 50 5.3 W 46 65 25 35 999.9 998.8 0.0
16/05:02pm 15.8 7.8 10.6 71 2.8 W 43 61 23 33 999.4 998.3 0.0
16/05:01pm 15.8 7.7 10.8 72 2.7 W 44 61 24 33 999.4 998.3 0.0
16/05:00pm 15.7 7.6 10.7 72 2.7 W 44 61 24 33 999.5 998.4 0.0
16/04:30pm 15.1 7.3 13.1 88 1.1 W 46 59 25 32 999.1 998.0 0.0
16/04:29pm 15.0 7.6 13.0 88 1.1 W 44 59 24 32 999.0 997.9 0.0
16/04:06pm 17.2 7.8 10.3 64 3.7 W 50 67 27 36 998.1 997.0 0.0
16/04:00pm 21.7 11.1 5.2 34 8.4 WNW 50 67 27 36 997.0 995.9 0.0
16/03:40pm 22.7 12.3 2.2 26 9.9 WNW 46 65 25 35 996.6 995.4 0.0
16/03:30pm 23.3 12.0 1.0 23 10.6 NW 50 65 27 35 996.4 995.2 0.0
16/03:03pm 24.5 12.1 -1.3 18 11.8 NW 54 72 29 39 996.1 995.0 0.0
16/03:00pm 24.2 11.3 -2.4 17 12.0 NW 56 72 30 39 996.3 995.1 0.0
16/02:51pm 24.9 14.1 -3.5 15 12.5 NW 44 65 24 35 996.1 995.0 0.0
16/02:30pm 24.6 13.3 -4.6 14 12.6 NW 46 61 25 33 995.9 994.8 0.0
16/02:21pm 25.1 13.8 -4.2 14 12.8 NW 46 65 25 35 995.9 994.8 0.0
16/02:00pm 25.5 14.3 -3.9 14 13.0 NW 46 61 25 33 995.7 994.6 0.0
16/01:31pm 27.1 16.4 -2.7 14 13.6 NW 44 63 24 34 995.7 994.6 0.0
16/01:30pm 27.1 16.4 -2.7 14 13.6 NW 44 59 24 32 995.6 994.5 0.0
16/01:14pm 27.4 17.6 -3.4 13 13.9 NW 39 59 21 32 995.9 994.8 0.0
16/01:00pm 26.9 16.3 -3.8 13 13.8 NW 43 56 23 30 996.1 995.0 0.0
16/12:30pm 26.7 17.6 -4.0 13 13.6 NNW 35 52 19 28 996.3 995.1 0.0
16/12:06pm 26.6 18.1 -2.1 15 13.1 NNW 33 52 18 28 996.5 995.3 0.0
16/12:00pm 26.2 17.8 -2.4 15 13.1 NNW 32 43 17 23 996.7 995.5 0.0
16/11:30am 25.1 18.3 -1.6 17 12.2 WNW 24 33 13 18 997.1 996.0 0.0
16/11:00am 24.9 14.9 -4.4 14 12.8 WNW 39 50 21 27 997.8 996.7 0.0
16/10:30am 24.7 16.6 -2.8 16 12.2 NW 30 41 16 22 998.0 996.9 0.0
16/10:00am 23.5 17.0 2.9 26 10.2 WNW 26 35 14 19 998.0 996.9 0.0
16/09:30am 22.2 16.1 2.8 28 9.4 WNW 24 30 13 16 998.1 997.0 0.0
16/09:00am 19.9 15.8 7.9 46 6.4 WNW 19 24 10 13 998.0 996.9 0.2
16/08:30am 17.4 16.9 15.9 91 0.9 WNW 13 24 7 13 997.7 996.6 0.2
16/08:15am 14.7 14.1 14.7 100 0.0 WNW 11 15 6 8 998.0 996.9 0.2
16/08:13am 14.4 14.1 14.4 100 0.0 WNW 9 13 5 7 998.0 996.9 0.2
16/08:00am 13.8 13.3 13.8 100 0.0 WNW 9 11 5 6 998.1 997.0 0.2
16/07:30am 12.4 11.8 12.4 100 0.0 WNW 7 11 4 6 998.2 997.1 0.2
16/07:00am 9.9 8.6 9.9 100 0.0 WNW 7 9 4 5 998.0 996.9 0.2
16/06:30am 9.0 7.5 9.0 100 0.0 NW 7 9 4 5 997.3 996.2 0.0
16/06:00am 9.0 7.1 9.0 100 0.0 NNE 9 9 5 5 997.1 996.0 0.0
16/05:30am 10.8 9.9 10.8 100 0.0 NE 6 9 3 5 997.2 996.1 0.0
16/05:00am 11.6 11.7 11.6 100 0.0 S 2 6 1 3 997.2 996.1 0.0
16/04:30am 11.9 11.7 11.9 100 0.0 SSW 4 7 2 4 997.6 996.5 0.0
16/04:00am 12.0 11.5 12.0 100 0.0 S 6 9 3 5 997.6 996.5 0.0
16/03:30am 12.2 11.1 12.0 99 0.1 S 9 13 5 7 997.8 996.7 0.0
16/03:11am 12.1 11.0 11.9 99 0.1 SW 9 13 5 7 998.2 997.1 0.0
16/03:08am 12.1 10.6 11.9 99 0.1 SW 11 13 6 7 998.3 997.2 0.0
16/03:00am 12.0 10.5 11.8 99 0.1 SW 11 13 6 7 998.4 997.3 0.0
16/02:30am 13.1 13.3 12.9 99 0.1 SSE 4 7 2 4 998.4 997.3 0.0
16/02:00am 13.8 13.2 13.6 99 0.1 SE 9 13 5 7 998.7 997.5 0.0
16/01:30am 13.2 12.0 12.9 98 0.2 SE 11 15 6 8 999.2 998.1 0.0
16/01:00am 14.8 13.8 14.5 98 0.2 S 13 15 7 8 999.8 998.7 0.0
16/12:30am 15.1 14.9 14.6 97 0.3 SSE 9 17 5 9 1000.4 999.3 0.0
16/12:00am 15.4 13.2 14.9 97 0.3 ESE 20 28 11 15 1000.3 999.2 0.0
 
Date/Time
EDT
Temp
°C
App
Temp
°C
Dew
Point
Rel
Hum
%
Delta-T
°C
Wind Press
QNH
hPa
Press
MSL
hPa
Rain
since 9 am
mm
Dir
 
Spd
km/h
Gust
km/h
Spd
kts
Gust
kts
15/11:30pm 15.3 11.9 14.8 97 0.3 ESE 26 32 14 17 1000.6 999.5 0.0
15/11:00pm 15.2 11.4 13.6 90 0.9 ESE 26 35 14 19 1000.9 999.9 0.0
15/10:30pm 15.5 11.1 13.0 85 1.4 ESE 28 35 15 19 1001.5 1000.4 0.0
15/10:00pm 15.7 11.3 13.0 84 1.5 SE 28 35 15 19 1001.9 1000.8 0.0
15/09:30pm 16.2 12.5 12.7 80 2.0 ESE 24 32 13 17 1001.9 1000.8 0.0
15/09:00pm 16.9 12.5 12.8 77 2.3 ESE 28 39 15 21 1002.1 1001.0 0.0
15/08:30pm 17.7 12.5 12.8 73 2.8 ESE 32 41 17 22 1002.4 1001.3 0.0
15/08:00pm 19.2 13.8 12.9 67 3.6 SE 33 46 18 25 1002.8 1001.8 0.0
15/07:30pm 21.4 16.1 13.1 59 4.8 SE 33 41 18 22 1003.0 1002.0 0.0
15/07:00pm 22.8 17.9 13.6 56 5.5 ESE 32 43 17 23 1002.9 1001.9 0.0
15/06:30pm 23.9 19.3 13.4 51 6.2 SE 30 37 16 20 1003.2 1002.2 0.0
15/06:00pm 25.4 21.3 13.9 49 6.9 SSE 28 35 15 19 1003.1 1002.1 0.0
15/05:30pm 26.9 23.1 14.6 46 7.5 SSE 28 35 15 19 1003.2 1002.2 0.0
15/05:00pm 29.1 26.1 3.9 20 13.1 ENE 9 17 5 9 1003.2 1002.2 0.0
15/04:30pm 28.8 26.3 5.0 22 12.5 ESE 7 9 4 5 1004.0 1002.9 0.0
15/04:00pm 27.4 25.8 6.2 26 11.4 SE 4 9 2 5 1004.5 1003.4 0.0
15/03:30pm 26.2 22.1 4.6 25 11.1 N 15 22 8 12 1005.0 1004.0 0.0
15/03:00pm 27.6 25.5 4.0 22 12.2 W 4 13 2 7 1005.3 1004.3 0.0
15/02:30pm 27.4 24.3 3.8 22 12.1 ENE 9 19 5 10 1005.8 1004.8 0.0
15/02:00pm 27.8 24.9 8.1 29 10.9 NNW 13 24 7 13 1006.3 1005.2 0.0
15/01:30pm 26.7 22.8 7.2 29 10.5 NW 17 30 9 16 1006.8 1005.8 0.0

Other Formats:

Comma delimited format used in spreadsheet applications
http://www.bom.gov.au/fwo/IDV60801/IDV60801.94852.axf

JavaScript Object Notation format (JSON) in row-major order
http://www.bom.gov.au/fwo/IDV60801/IDV60801.94852.json